Time;durP1;ratioP1;P1;durP2;ratioP2;P2;SDS_P1;SDS_P2;PMS_P1;PMS_P2;Temp;Humidity;BMP_temperature;BMP_pressure;BME280_temperature;BME280_humidity;BME280_pressure;Samples;Min_cycle;Max_cycle;Signal;HPM_P1;HPM_P2
2023/04/10 00:00:05;;;;;;;68.13;51.45;;;7.40;99.90;;;;;;5060215;28;20040;-83
2023/04/10 00:02:32;;;;;;;66.32;51.15;;;7.40;99.90;;;;;;5095923;28;20033;-84
2023/04/10 00:04:58;;;;;;;67.55;51.05;;;7.30;99.90;;;;;;5052209;28;20398;-87
2023/04/10 00:07:25;;;;;;;73.13;53.22;;;7.20;99.90;;;;;;5052796;28;20127;-87
2023/04/10 00:09:50;;;;;;;69.22;53.35;;;7.30;99.90;;;;;;5065229;28;20100;-87
2023/04/10 00:12:16;;;;;;;66.18;52.85;;;7.30;99.90;;;;;;5065001;28;20487;-87
2023/04/10 00:14:42;;;;;;;71.53;54.47;;;7.30;99.90;;;;;;5043302;28;20036;-88
2023/04/10 00:17:07;;;;;;;72.90;55.85;;;7.20;99.90;;;;;;5073057;28;20032;-87
2023/04/10 00:19:33;;;;;;;76.05;58.15;;;7.30;99.90;;;;;;5073083;28;20101;-86
2023/04/10 00:21:59;;;;;;;70.28;56.13;;;7.20;99.90;;;;;;5071600;28;20024;-88
2023/04/10 00:24:24;;;;;;;71.88;56.92;;;7.20;99.90;;;;;;5060082;28;20466;-88
2023/04/10 00:26:50;;;;;;;74.97;57.08;;;7.40;99.90;;;;;;5065664;28;20048;-87
2023/04/10 00:29:16;;;;;;;78.72;59.55;;;7.30;99.90;;;;;;5080784;28;20100;-84
2023/04/10 00:31:41;;;;;;;73.35;58.60;;;7.20;99.90;;;;;;5090797;28;20051;-86
2023/04/10 00:34:07;;;;;;;75.72;61.08;;;7.20;99.90;;;;;;5070098;28;20099;-88
2023/04/10 00:36:34;;;;;;;76.35;60.75;;;7.10;99.90;;;;;;5072316;28;20028;-88
2023/04/10 00:39:00;;;;;;;76.20;60.58;;;7.10;99.90;;;;;;5076662;28;20028;-88
2023/04/10 00:41:26;;;;;;;80.05;61.33;;;7.00;99.90;;;;;;5064530;28;20643;-88
2023/04/10 00:43:56;;;;;;;80.63;61.42;;;7.00;99.90;;;;;;5069601;28;20032;-88
2023/04/10 00:46:26;;;;;;;77.38;60.17;;;7.00;99.90;;;;;;5048750;28;20452;-87
2023/04/10 00:48:53;;;;;;;75.07;59.20;;;7.10;99.90;;;;;;5058049;28;20039;-88
2023/04/10 00:51:19;;;;;;;76.50;62.35;;;6.90;99.90;;;;;;5067005;28;20036;-87
2023/04/10 00:53:46;;;;;;;78.93;61.42;;;6.90;99.90;;;;;;5061150;28;20041;-87
2023/04/10 00:56:13;;;;;;;74.03;58.83;;;6.80;99.90;;;;;;5066286;28;20024;-87
2023/04/10 00:58:38;;;;;;;80.05;62.30;;;6.90;99.90;;;;;;5063793;28;20486;-87
2023/04/10 01:01:05;;;;;;;80.53;61.40;;;6.80;99.90;;;;;;5062267;28;20050;-88
2023/04/10 01:03:30;;;;;;;77.63;62.42;;;6.90;99.90;;;;;;5063918;28;20036;-87
2023/04/10 01:06:21;;;;;;;75.18;61.85;;;6.80;99.90;;;;;;5066954;28;20033;-84
2023/04/10 01:09:02;;;;;;;79.80;62.88;;;6.80;99.90;;;;;;5067151;28;20483;-86
2023/04/10 01:11:34;;;;;;;83.50;64.07;;;6.80;99.90;;;;;;5070727;28;20067;-87
2023/04/10 01:14:14;;;;;;;84.75;63.60;;;6.60;99.90;;;;;;5088872;28;20051;-88
2023/04/10 01:16:50;;;;;;;80.65;64.47;;;6.70;99.90;;;;;;5075856;28;20115;-88
2023/04/10 01:19:43;;;;;;;84.03;66.20;;;6.70;99.90;;;;;;5070120;28;20040;-88
2023/04/10 01:22:12;;;;;;;83.68;67.35;;;6.70;99.90;;;;;;5070134;28;20036;-85
2023/04/10 01:25:03;;;;;;;82.03;66.68;;;6.60;99.90;;;;;;5050683;28;20040;-87
2023/04/10 01:27:32;;;;;;;86.28;67.80;;;6.70;99.90;;;;;;5072245;28;20046;-87
2023/04/10 01:30:01;;;;;;;87.50;68.65;;;6.60;99.90;;;;;;5058731;28;20038;-88
2023/04/10 01:32:28;;;;;;;87.85;69.80;;;6.60;99.90;;;;;;5065617;28;20036;-87
2023/04/10 01:34:55;;;;;;;85.85;67.07;;;6.50;99.90;;;;;;5074511;28;20032;-87
2023/04/10 01:37:26;;;;;;;87.32;68.35;;;6.60;99.90;;;;;;5066457;28;20028;-87
2023/04/10 01:40:02;;;;;;;86.57;70.15;;;6.50;99.90;;;;;;5070044;28;20036;-87
2023/04/10 01:42:37;;;;;;;83.20;66.78;;;6.40;99.90;;;;;;5068147;28;20225;-87
2023/04/10 01:45:05;;;;;;;89.90;67.45;;;6.50;99.90;;;;;;5062139;28;20039;-87
2023/04/10 01:47:31;;;;;;;85.93;69.13;;;6.50;99.90;;;;;;5071018;28;20040;-87
2023/04/10 01:49:58;;;;;;;87.38;69.07;;;6.60;99.90;;;;;;5071771;28;20047;-87
2023/04/10 01:52:25;;;;;;;87.25;68.93;;;6.50;99.90;;;;;;5064201;28;20028;-87
2023/04/10 01:54:52;;;;;;;94.28;71.15;;;6.50;99.90;;;;;;5067807;28;20388;-87
2023/04/10 01:57:18;;;;;;;89.68;68.50;;;6.50;99.90;;;;;;5069111;28;20037;-88
2023/04/10 01:59:43;;;;;;;85.40;67.97;;;6.40;99.90;;;;;;5064837;28;20040;-87
2023/04/10 02:02:11;;;;;;;88.65;69.18;;;6.40;99.90;;;;;;5074355;28;20507;-86
2023/04/10 02:04:37;;;;;;;86.32;68.32;;;6.60;99.90;;;;;;5053961;28;20032;-87
2023/04/10 02:07:12;;;;;;;86.82;69.45;;;6.40;99.90;;;;;;5074124;28;20486;-87
2023/04/10 02:09:49;;;;;;;87.53;67.40;;;6.60;99.90;;;;;;5055044;28;20059;-87
2023/04/10 02:12:26;;;;;;;84.40;66.95;;;6.40;99.90;;;;;;5059776;28;20430;-87
2023/04/10 02:14:55;;;;;;;88.68;68.72;;;6.40;99.90;;;;;;5067136;28;20044;-87
2023/04/10 02:17:27;;;;;;;88.78;68.63;;;6.40;99.90;;;;;;5079070;28;20133;-87
2023/04/10 02:19:54;;;;;;;83.28;67.53;;;6.40;99.90;;;;;;5074849;28;20028;-87
2023/04/10 02:22:21;;;;;;;87.82;67.75;;;6.50;99.90;;;;;;5073662;28;20028;-87
2023/04/10 02:24:48;;;;;;;86.40;67.95;;;6.40;99.90;;;;;;5067824;28;20031;-87
2023/04/10 02:27:14;;;;;;;89.65;69.75;;;6.50;99.90;;;;;;5074504;28;20040;-87
2023/04/10 02:29:39;;;;;;;90.50;69.43;;;6.60;99.90;;;;;;5056549;28;20093;-87
2023/04/10 02:32:05;;;;;;;85.70;64.97;;;6.60;99.90;;;;;;5069434;28;20036;-87
2023/04/10 02:34:31;;;;;;;87.50;67.47;;;6.60;99.90;;;;;;5069017;28;20032;-87
2023/04/10 02:36:56;;;;;;;85.28;66.97;;;6.50;99.90;;;;;;5071645;28;20039;-88
2023/04/10 02:39:22;;;;;;;87.65;68.03;;;6.60;99.90;;;;;;5074135;28;20032;-87
2023/04/10 02:41:48;;;;;;;87.07;66.78;;;6.50;99.90;;;;;;5074565;28;20039;-87
2023/04/10 02:44:13;;;;;;;86.85;66.63;;;6.40;99.90;;;;;;5063597;28;20714;-87
2023/04/10 02:46:40;;;;;;;85.35;69.53;;;6.40;99.90;;;;;;5061749;28;20051;-87
2023/04/10 02:49:06;;;;;;;84.22;67.07;;;6.40;99.90;;;;;;5051890;28;20094;-87
2023/04/10 02:51:35;;;;;;;92.82;71.07;;;6.50;99.90;;;;;;5068928;28;20039;-87
2023/04/10 02:54:01;;;;;;;93.45;70.18;;;6.40;99.90;;;;;;5073261;28;20097;-86
2023/04/10 02:56:27;;;;;;;90.50;70.07;;;6.40;99.90;;;;;;5065285;28;20041;-87
2023/04/10 02:58:52;;;;;;;87.07;69.10;;;6.10;99.90;;;;;;5056795;28;20063;-87
2023/04/10 03:01:18;;;;;;;90.22;69.38;;;6.30;99.90;;;;;;5070066;28;20128;-87
2023/04/10 03:03:43;;;;;;;90.45;70.15;;;6.40;99.90;;;;;;5058787;28;20083;-86
2023/04/10 03:06:09;;;;;;;89.80;70.53;;;6.30;99.90;;;;;;5066260;28;20081;-88
2023/04/10 03:08:35;;;;;;;94.20;71.80;;;6.30;99.90;;;;;;5057219;28;20028;-87
2023/04/10 03:11:01;;;;;;;88.25;69.03;;;6.30;99.90;;;;;;5065435;28;20036;-88
2023/04/10 03:13:26;;;;;;;91.20;72.25;;;6.30;99.90;;;;;;5068804;28;20029;-87
2023/04/10 03:15:52;;;;;;;89.35;69.85;;;6.20;99.90;;;;;;5065296;28;20043;-87
2023/04/10 03:18:17;;;;;;;87.38;70.00;;;6.20;99.90;;;;;;5074013;28;20024;-88
2023/04/10 03:20:43;;;;;;;84.93;68.05;;;6.20;99.90;;;;;;5067652;28;20039;-88
2023/04/10 03:23:09;;;;;;;90.03;70.38;;;6.20;99.90;;;;;;5063097;28;20056;-88
2023/04/10 03:25:35;;;;;;;88.22;68.07;;;6.30;99.90;;;;;;5059087;28;20036;-87
2023/04/10 03:28:01;;;;;;;85.60;68.75;;;6.30;99.90;;;;;;5071293;28;20047;-88
2023/04/10 03:30:27;;;;;;;86.43;69.40;;;6.20;99.90;;;;;;5072480;28;20032;-87
2023/04/10 03:32:52;;;;;;;93.38;71.13;;;6.30;99.90;;;;;;5065179;28;20375;-87
2023/04/10 03:35:18;;;;;;;86.32;66.78;;;6.20;99.90;;;;;;5061891;28;20057;-87
2023/04/10 03:37:43;;;;;;;91.10;71.00;;;6.30;99.90;;;;;;5049669;28;20028;-87
2023/04/10 03:40:10;;;;;;;90.20;69.88;;;6.20;99.90;;;;;;5072777;28;20039;-87
2023/04/10 03:42:35;;;;;;;93.72;71.10;;;6.30;99.90;;;;;;5061539;28;20032;-87
2023/04/10 03:45:03;;;;;;;94.45;70.63;;;6.20;99.90;;;;;;5065612;28;20017;-84
2023/04/10 03:47:32;;;;;;;89.68;69.60;;;6.20;99.90;;;;;;5095092;28;20024;-83
2023/04/10 03:49:58;;;;;;;89.75;69.43;;;6.20;99.90;;;;;;5087844;28;20032;-88
2023/04/10 03:52:24;;;;;;;89.32;70.35;;;6.20;99.90;;;;;;5073019;28;20432;-88
2023/04/10 03:54:51;;;;;;;87.28;69.22;;;6.10;99.90;;;;;;5073768;28;20044;-87
2023/04/10 03:57:18;;;;;;;93.15;70.78;;;6.00;99.90;;;;;;5072396;28;20041;-88
2023/04/10 03:59:43;;;;;;;92.47;72.95;;;6.00;99.90;;;;;;5055376;28;20059;-87
2023/04/10 04:02:09;;;;;;;90.40;71.15;;;6.10;99.90;;;;;;5073069;28;20586;-87
2023/04/10 04:04:35;;;;;;;94.82;70.95;;;6.00;99.90;;;;;;5065401;28;20551;-86
2023/04/10 04:07:01;;;;;;;92.53;70.35;;;5.90;99.90;;;;;;5064781;28;20102;-88
2023/04/10 04:09:26;;;;;;;92.90;72.80;;;5.90;99.90;;;;;;5070709;28;20040;-88
2023/04/10 04:11:52;;;;;;;92.43;70.55;;;5.90;99.90;;;;;;5059388;28;20037;-88
2023/04/10 04:14:17;;;;;;;90.05;68.85;;;5.80;99.90;;;;;;5081252;28;20020;-85
2023/04/10 04:16:43;;;;;;;88.75;70.97;;;5.80;99.90;;;;;;5103229;28;20024;-86
2023/04/10 04:19:08;;;;;;;90.63;71.25;;;5.70;99.90;;;;;;5079703;28;20047;-89
2023/04/10 04:21:34;;;;;;;91.75;69.20;;;5.80;99.90;;;;;;5077291;28;20036;-88
2023/04/10 04:24:00;;;;;;;86.18;67.72;;;5.80;99.90;;;;;;5074259;28;20058;-87
2023/04/10 04:26:25;;;;;;;90.82;68.22;;;5.80;99.90;;;;;;5077148;28;20036;-87
2023/04/10 04:28:52;;;;;;;91.35;70.22;;;5.70;99.90;;;;;;5075329;28;20043;-87
2023/04/10 04:31:18;;;;;;;90.65;68.00;;;5.40;99.90;;;;;;5071372;28;20122;-87
2023/04/10 04:33:43;;;;;;;86.22;67.57;;;5.80;99.90;;;;;;5064965;28;20114;-87
2023/04/10 04:36:09;;;;;;;93.40;69.57;;;5.90;99.90;;;;;;5069863;28;20127;-86
2023/04/10 04:38:34;;;;;;;90.88;69.28;;;5.70;99.90;;;;;;5075463;28;20146;-86
2023/04/10 04:41:00;;;;;;;87.03;69.20;;;5.70;99.90;;;;;;5074682;28;20036;-86
2023/04/10 04:43:25;;;;;;;85.75;66.55;;;5.70;99.90;;;;;;5070108;28;20040;-86
2023/04/10 04:45:51;;;;;;;87.53;67.18;;;5.60;99.90;;;;;;5057795;28;20471;-86
2023/04/10 04:48:16;;;;;;;90.70;67.32;;;5.60;99.90;;;;;;5063859;28;20051;-86
2023/04/10 04:50:42;;;;;;;89.75;68.15;;;5.60;99.90;;;;;;5074114;28;20040;-86
2023/04/10 04:53:08;;;;;;;83.38;66.03;;;5.60;99.90;;;;;;5068239;28;20044;-86
2023/04/10 04:55:34;;;;;;;92.45;69.95;;;5.60;99.90;;;;;;5071570;28;20043;-86
2023/04/10 04:57:59;;;;;;;90.78;67.28;;;5.60;99.90;;;;;;5064814;28;20395;-86
2023/04/10 05:00:25;;;;;;;83.82;65.65;;;5.50;99.90;;;;;;5054607;28;20029;-86
2023/04/10 05:02:50;;;;;;;84.75;65.65;;;5.50;99.90;;;;;;5059075;28;20114;-86
2023/04/10 05:05:16;;;;;;;89.40;66.63;;;5.50;99.90;;;;;;5062131;28;20181;-86
2023/04/10 05:07:42;;;;;;;87.70;67.22;;;5.60;99.90;;;;;;5048763;28;20063;-86
2023/04/10 05:10:07;;;;;;;89.32;67.72;;;5.60;99.90;;;;;;5071335;28;20047;-86
2023/04/10 05:12:33;;;;;;;88.65;66.65;;;5.70;99.90;;;;;;5067049;28;20403;-86
2023/04/10 05:14:59;;;;;;;87.47;66.00;;;5.60;99.90;;;;;;5073465;28;20035;-85
2023/04/10 05:17:25;;;;;;;85.65;64.22;;;5.60;99.90;;;;;;5066730;28;20052;-86
2023/04/10 05:19:50;;;;;;;88.13;64.93;;;5.60;99.90;;;;;;5084262;28;20028;-86
2023/04/10 05:22:16;;;;;;;84.82;64.45;;;5.80;99.90;;;;;;5069766;28;20153;-87
2023/04/10 05:24:41;;;;;;;81.95;64.25;;;5.70;99.90;;;;;;5063419;28;20487;-86
2023/04/10 05:27:07;;;;;;;85.50;63.72;;;5.70;99.90;;;;;;5067089;28;20032;-87
2023/04/10 05:29:33;;;;;;;77.20;61.92;;;5.70;99.90;;;;;;5061051;28;20702;-86
2023/04/10 05:31:59;;;;;;;86.22;64.50;;;5.80;99.90;;;;;;5063565;28;20051;-86
2023/04/10 05:34:24;;;;;;;82.93;63.15;;;5.80;99.90;;;;;;5056954;28;20406;-86
2023/04/10 05:36:50;;;;;;;80.88;62.72;;;5.80;99.90;;;;;;5067361;28;20423;-86
2023/04/10 05:39:18;;;;;;;83.38;62.28;;;5.90;99.90;;;;;;5058189;28;20040;-86
2023/04/10 05:41:44;;;;;;;85.15;63.50;;;6.00;99.90;;;;;;5059098;28;20075;-86
2023/04/10 05:44:09;;;;;;;84.55;63.45;;;6.10;99.90;;;;;;5048771;28;20063;-86
2023/04/10 05:46:35;;;;;;;82.25;64.00;;;6.10;99.90;;;;;;5069599;28;20036;-86
2023/04/10 05:49:00;;;;;;;82.88;63.65;;;6.20;99.90;;;;;;5068871;28;20052;-86
2023/04/10 05:51:26;;;;;;;81.03;62.05;;;6.30;99.90;;;;;;5055374;28;20471;-87
2023/04/10 05:53:52;;;;;;;84.35;63.47;;;6.30;99.90;;;;;;5055405;28;20052;-86
2023/04/10 05:56:17;;;;;;;79.72;61.25;;;6.40;99.90;;;;;;5088974;28;20041;-87
2023/04/10 05:58:43;;;;;;;82.78;63.15;;;6.50;99.90;;;;;;5061465;28;20028;-86
2023/04/10 06:01:08;;;;;;;80.90;61.88;;;6.50;99.90;;;;;;5073376;28;20395;-86
2023/04/10 06:03:34;;;;;;;84.70;63.95;;;6.50;99.90;;;;;;5060527;28;20532;-86
2023/04/10 06:06:01;;;;;;;80.40;61.22;;;6.60;99.90;;;;;;5057305;28;20174;-87
2023/04/10 06:08:29;;;;;;;82.18;61.42;;;6.70;99.90;;;;;;5065355;28;20502;-86
2023/04/10 06:10:56;;;;;;;85.88;61.92;;;6.70;99.90;;;;;;5073103;28;20055;-87
2023/04/10 06:13:21;;;;;;;85.10;62.88;;;6.80;99.90;;;;;;5057225;28;20445;-86
2023/04/10 06:15:47;;;;;;;83.15;62.03;;;6.70;99.90;;;;;;5057921;28;20124;-88
2023/04/10 06:18:12;;;;;;;81.65;60.40;;;6.90;99.90;;;;;;5082294;28;20039;-86
2023/04/10 06:20:38;;;;;;;87.47;62.45;;;7.00;99.90;;;;;;5070769;28;20123;-87
2023/04/10 06:23:04;;;;;;;82.40;62.17;;;7.00;99.90;;;;;;5065584;28;20127;-87
2023/04/10 06:25:30;;;;;;;80.25;61.20;;;7.20;99.90;;;;;;5061442;28;20536;-87
2023/04/10 06:27:56;;;;;;;77.93;57.92;;;7.20;99.90;;;;;;5064175;28;20047;-87
2023/04/10 06:30:21;;;;;;;80.18;60.22;;;7.50;99.90;;;;;;5054792;28;20029;-86
2023/04/10 06:32:47;;;;;;;80.07;59.55;;;7.50;99.90;;;;;;5064759;28;20036;-86
2023/04/10 06:35:12;;;;;;;77.25;57.20;;;7.60;99.90;;;;;;5050919;28;20427;-86
2023/04/10 06:37:38;;;;;;;74.15;56.83;;;7.70;99.90;;;;;;5073460;28;20135;-86
2023/04/10 06:40:08;;;;;;;78.78;57.50;;;7.80;99.90;;;;;;5060015;28;20047;-86
2023/04/10 06:42:34;;;;;;;74.55;56.50;;;8.00;99.90;;;;;;5072237;28;20032;-86
2023/04/10 06:45:00;;;;;;;74.35;56.28;;;7.90;99.90;;;;;;5050373;28;20070;-87
2023/04/10 06:47:25;;;;;;;72.97;55.25;;;8.00;99.90;;;;;;5064100;28;20059;-87
2023/04/10 06:49:51;;;;;;;73.50;54.95;;;8.10;99.90;;;;;;5074409;28;20043;-88
2023/04/10 06:52:17;;;;;;;74.57;54.78;;;8.10;99.90;;;;;;5061697;28;20550;-87
2023/04/10 06:54:43;;;;;;;75.85;53.78;;;8.00;99.90;;;;;;5054057;28;20112;-86
2023/04/10 06:57:08;;;;;;;70.47;52.47;;;8.30;99.90;;;;;;5059777;28;20044;-86
2023/04/10 06:59:34;;;;;;;70.05;52.47;;;8.40;99.90;;;;;;5044876;28;20142;-87
2023/04/10 07:02:01;;;;;;;66.60;51.15;;;8.50;99.90;;;;;;5050586;28;20059;-86
2023/04/10 07:04:27;;;;;;;63.28;48.50;;;8.50;99.90;;;;;;5061860;28;20036;-89
2023/04/10 07:06:52;;;;;;;63.35;49.03;;;8.60;99.90;;;;;;5047692;28;20411;-86
2023/04/10 07:09:20;;;;;;;61.50;46.35;;;8.70;99.90;;;;;;5062786;28;20044;-86
2023/04/10 07:11:47;;;;;;;66.97;48.20;;;9.30;99.90;;;;;;5071649;28;20036;-87
2023/04/10 07:15:07;;;;;;;61.95;46.55;;;9.00;99.90;;;;;;5040571;28;20085;-86
2023/04/10 07:18:11;;;;;;;61.80;44.58;;;9.00;99.90;;;;;;4967167;28;20102;-87
2023/04/10 07:20:37;;;;;;;56.83;44.10;;;9.00;99.90;;;;;;5050849;28;20059;-86
2023/04/10 07:23:06;;;;;;;60.50;45.60;;;8.80;99.90;;;;;;5044388;28;20485;-87
2023/04/10 07:25:33;;;;;;;57.28;44.05;;;9.50;99.90;;;;;;5057155;28;20093;-87
2023/04/10 07:27:58;;;;;;;55.47;42.45;;;9.20;99.90;;;;;;5068424;28;20487;-87
2023/04/10 07:30:24;;;;;;;56.25;43.65;;;9.40;99.90;;;;;;5081230;28;20105;-85
2023/04/10 07:32:49;;;;;;;57.55;42.55;;;9.50;99.90;;;;;;5077243;28;20016;-85
2023/04/10 07:35:15;;;;;;;56.80;41.15;;;9.60;99.90;;;;;;5067626;28;20040;-87
2023/04/10 07:37:42;;;;;;;52.92;40.05;;;9.80;99.90;;;;;;5073374;28;20398;-86
2023/04/10 07:40:09;;;;;;;53.72;40.65;;;9.80;99.90;;;;;;5071117;28;20535;-87
2023/04/10 07:42:35;;;;;;;56.00;40.05;;;9.90;99.90;;;;;;5067330;28;20439;-87
2023/04/10 07:45:02;;;;;;;53.45;39.97;;;10.00;99.90;;;;;;5061983;28;20071;-87
2023/04/10 07:47:28;;;;;;;53.42;39.10;;;10.20;99.90;;;;;;5077604;28;20047;-87
2023/04/10 07:49:53;;;;;;;48.72;36.00;;;10.40;99.90;;;;;;5060213;28;20036;-86
2023/04/10 07:55:38;;;;;;;41.20;33.40;;;11.10;99.90;;;;;;5064036;28;20047;-87
2023/04/10 07:58:11;;;;;;;39.80;30.75;;;11.90;99.90;;;;;;5088424;27;20036;-85
2023/04/10 08:01:07;;;;;;;38.60;29.42;;;11.50;99.90;;;;;;5110009;27;20027;-85
2023/04/10 08:04:23;;;;;;;36.72;28.58;;;11.80;99.90;;;;;;5085889;28;20107;-89
2023/04/10 08:07:43;;;;;;;34.63;26.60;;;12.50;99.90;;;;;;5084192;28;20053;-87
2023/04/10 08:10:54;;;;;;;33.67;25.27;;;12.20;99.90;;;;;;5077081;28;20093;-88
2023/04/10 08:14:44;;;;;;;35.70;26.15;;;12.50;99.90;;;;;;5075715;28;20032;-88
2023/04/10 08:18:47;;;;;;;32.65;24.05;;;12.80;99.90;;;;;;5097299;28;20394;-87
2023/04/10 08:22:08;;;;;;;29.98;23.90;;;13.40;99.90;;;;;;5089481;28;20067;-87
2023/04/10 08:25:45;;;;;;;37.85;28.27;;;13.50;99.90;;;;;;5054357;28;20046;-87
2023/04/10 08:28:40;;;;;;;48.20;35.38;;;13.70;99.90;;;;;;5023213;28;20064;-86
2023/04/10 08:35:37;;;;;;;29.98;23.25;;;14.40;99.90;;;;;;5085828;28;20158;-89
2023/04/10 08:39:27;;;;;;;26.33;20.83;;;14.30;93.00;;;;;;5038069;28;20035;-87
2023/04/10 08:43:17;;;;;;;26.98;19.73;;;14.20;99.90;;;;;;4939646;29;20048;-88
2023/04/10 08:46:54;;;;;;;23.73;20.30;;;14.50;84.10;;;;;;4937960;28;20041;-88
2023/04/10 08:53:25;;;;;;;23.42;18.55;;;15.30;97.90;;;;;;5081164;28;20444;-83
2023/04/10 08:55:50;;;;;;;27.17;20.48;;;15.40;99.90;;;;;;5079892;28;20044;-84
2023/04/10 09:02:37;;;;;;;24.70;19.70;;;15.20;90.00;;;;;;5002730;28;20041;-88
2023/04/10 09:13:21;;;;;;;25.58;21.15;;;15.90;81.20;;;;;;5043171;28;20179;-85
2023/04/10 09:16:43;;;;;;;26.25;20.92;;;16.10;82.40;;;;;;4935321;29;20079;-86
2023/04/10 09:20:38;;;;;;;25.20;19.77;;;16.50;76.90;;;;;;4903010;29;20043;-88
2023/04/10 09:34:57;;;;;;;18.83;15.80;;;16.80;73.40;;;;;;4999810;22;20079;-86
2023/04/10 09:37:30;;;;;;;17.20;14.27;;;16.70;69.90;;;;;;5067200;28;20040;-86
2023/04/10 09:39:56;;;;;;;17.15;14.68;;;16.70;69.20;;;;;;5045748;28;20032;-85
2023/04/10 09:42:33;;;;;;;16.38;14.18;;;16.70;69.20;;;;;;5046260;28;20116;-86
2023/04/10 09:45:00;;;;;;;15.32;12.70;;;17.40;67.10;;;;;;5044610;28;20380;-85
2023/04/10 09:47:26;;;;;;;14.65;11.88;;;17.60;68.50;;;;;;5034523;28;20033;-86
2023/04/10 09:49:52;;;;;;;13.30;11.82;;;17.10;67.40;;;;;;5045449;28;20041;-85
2023/04/10 09:52:20;;;;;;;13.73;12.10;;;16.70;67.50;;;;;;5051991;28;20067;-86
2023/04/10 09:54:46;;;;;;;15.27;12.88;;;16.10;67.10;;;;;;5031770;28;20044;-85
2023/04/10 09:57:19;;;;;;;13.98;12.27;;;16.10;67.80;;;;;;5053911;28;20036;-85
2023/04/10 09:59:59;;;;;;;12.80;11.35;;;15.80;67.50;;;;;;5054297;28;20079;-86
2023/04/10 10:02:27;;;;;;;12.50;11.13;;;16.60;66.10;;;;;;5024162;28;20029;-86
2023/04/10 10:04:53;;;;;;;13.98;11.77;;;16.10;66.40;;;;;;5024722;28;20090;-85
2023/04/10 10:07:22;;;;;;;14.68;11.82;;;16.80;67.50;;;;;;5051923;28;20071;-86
2023/04/10 10:09:50;;;;;;;12.63;11.18;;;17.60;67.20;;;;;;5026049;28;20048;-86
2023/04/10 10:12:22;;;;;;;12.02;10.77;;;17.90;66.80;;;;;;5049719;28;20119;-86
2023/04/10 10:15:03;;;;;;;11.75;10.55;;;18.10;66.70;;;;;;5049499;28;20032;-86
2023/04/10 10:17:37;;;;;;;12.63;11.18;;;18.00;63.60;;;;;;5052594;28;20036;-85
2023/04/10 10:20:11;;;;;;;13.27;11.90;;;18.50;65.30;;;;;;5037855;28;20455;-86
2023/04/10 10:22:37;;;;;;;10.80;9.43;;;17.70;64.30;;;;;;5025774;28;20041;-85
2023/04/10 10:25:03;;;;;;;12.57;10.18;;;17.70;64.90;;;;;;5035212;28;20051;-86
2023/04/10 10:27:36;;;;;;;12.00;9.93;;;18.00;64.60;;;;;;5039834;28;20123;-86
2023/04/10 10:30:02;;;;;;;11.60;10.40;;;17.60;62.40;;;;;;5022553;28;20072;-86
2023/04/10 10:32:29;;;;;;;10.15;9.18;;;18.00;62.80;;;;;;5021681;28;20111;-86
2023/04/10 10:34:56;;;;;;;11.23;10.07;;;18.20;63.40;;;;;;5037375;28;20424;-86
2023/04/10 10:37:22;;;;;;;11.48;10.27;;;18.50;64.50;;;;;;5040911;28;20491;-86
2023/04/10 10:40:08;;;;;;;10.85;8.55;;;17.80;64.00;;;;;;5035802;28;20036;-86
2023/04/10 10:42:37;;;;;;;10.15;8.82;;;17.70;61.20;;;;;;5042205;28;20079;-86
2023/04/10 10:45:11;;;;;;;11.35;9.68;;;18.80;63.70;;;;;;5067404;28;20403;-86
2023/04/10 10:47:53;;;;;;;10.27;9.18;;;17.70;62.30;;;;;;5049554;28;20045;-86
2023/04/10 10:50:20;;;;;;;11.18;9.43;;;17.20;60.60;;;;;;5065729;28;20101;-86
2023/04/10 10:52:56;;;;;;;10.30;9.18;;;17.70;63.00;;;;;;5031309;28;20040;-86
2023/04/10 10:55:24;;;;;;;9.35;8.45;;;18.10;62.80;;;;;;5039875;28;20495;-85
2023/04/10 10:57:51;;;;;;;9.13;8.18;;;17.70;63.10;;;;;;5031862;28;20044;-86
2023/04/10 11:00:16;;;;;;;13.13;9.10;;;17.80;62.90;;;;;;5032855;28;20036;-85
2023/04/10 11:02:42;;;;;;;11.98;8.82;;;17.10;63.30;;;;;;5029230;28;20044;-86
2023/04/10 11:05:08;;;;;;;11.32;9.05;;;17.20;63.10;;;;;;5022157;28;20051;-85
2023/04/10 11:08:06;;;;;;;9.20;8.27;;;17.10;63.50;;;;;;5038913;28;20033;-86
2023/04/10 11:11:04;;;;;;;9.35;8.38;;;17.20;62.70;;;;;;5019354;28;20369;-85
2023/04/10 11:13:33;;;;;;;7.93;7.15;;;17.30;62.90;;;;;;5032464;28;20028;-86
2023/04/10 11:16:02;;;;;;;7.78;6.97;;;17.50;63.70;;;;;;5035538;28;20040;-85
2023/04/10 11:18:46;;;;;;;7.63;6.70;;;18.10;63.70;;;;;;5049521;28;20033;-86
2023/04/10 11:21:12;;;;;;;7.10;6.18;;;17.50;63.50;;;;;;5037083;28;20033;-86
2023/04/10 11:24:00;;;;;;;7.70;6.40;;;17.40;63.00;;;;;;5041393;28;20032;-86
2023/04/10 11:26:35;;;;;;;7.70;6.80;;;17.30;62.40;;;;;;5038172;28;20586;-86
2023/04/10 11:29:05;;;;;;;8.32;6.30;;;18.10;63.30;;;;;;5029799;28;20036;-86
2023/04/10 11:31:34;;;;;;;7.03;6.43;;;17.90;63.00;;;;;;5028845;28;20052;-86
2023/04/10 11:34:02;;;;;;;6.78;5.70;;;16.90;62.40;;;;;;5027457;28;20471;-86
2023/04/10 11:36:29;;;;;;;6.57;5.97;;;17.60;62.10;;;;;;5029029;28;20036;-86
2023/04/10 11:38:57;;;;;;;6.55;5.80;;;16.60;62.10;;;;;;5043058;28;20045;-85
2023/04/10 11:41:29;;;;;;;6.22;5.45;;;16.80;62.60;;;;;;5025283;28;20040;-86
2023/04/10 11:43:55;;;;;;;6.38;5.78;;;18.00;63.60;;;;;;5032596;28;20028;-85
2023/04/10 11:46:21;;;;;;;6.53;5.82;;;16.60;62.90;;;;;;5050039;28;20033;-87
2023/04/10 11:48:47;;;;;;;7.57;5.97;;;17.90;64.20;;;;;;5029133;28;20043;-87
2023/04/10 11:51:13;;;;;;;5.93;5.32;;;17.40;64.00;;;;;;5032936;28;20032;-86
2023/04/10 11:53:40;;;;;;;5.50;5.00;;;17.20;63.50;;;;;;5040008;28;20487;-85
2023/04/10 11:56:28;;;;;;;5.93;5.30;;;16.90;62.80;;;;;;5024212;28;20040;-86
2023/04/10 11:58:54;;;;;;;5.93;5.38;;;16.70;64.60;;;;;;5014253;28;20498;-86
2023/04/10 12:01:21;;;;;;;7.40;6.05;;;18.10;64.40;;;;;;5022638;28;20041;-86
2023/04/10 12:03:47;;;;;;;8.90;6.47;;;18.00;63.90;;;;;;5030033;28;20064;-87
2023/04/10 12:06:14;;;;;;;6.47;5.88;;;18.30;64.60;;;;;;5019293;28;20454;-86
2023/04/10 12:08:50;;;;;;;7.18;5.75;;;18.30;62.90;;;;;;5027867;28;20116;-86
2023/04/10 12:11:23;;;;;;;6.60;5.90;;;17.80;61.40;;;;;;5028468;28;20047;-86
2023/04/10 12:13:56;;;;;;;7.50;5.63;;;18.40;61.30;;;;;;5047066;28;20550;-86
2023/04/10 12:16:23;;;;;;;6.95;6.18;;;19.30;62.40;;;;;;5044003;28;20558;-87
2023/04/10 12:18:49;;;;;;;6.63;5.93;;;18.30;61.70;;;;;;5037536;28;20503;-86
2023/04/10 12:21:15;;;;;;;6.18;5.57;;;19.20;61.90;;;;;;5043707;28;20037;-86
2023/04/10 12:23:41;;;;;;;6.40;5.80;;;19.20;62.10;;;;;;5050111;28;20050;-86
2023/04/10 12:26:14;;;;;;;8.55;6.18;;;19.40;63.40;;;;;;5037292;28;20515;-86
2023/04/10 12:28:47;;;;;;;6.97;6.05;;;19.30;60.10;;;;;;5050403;28;20048;-84
2023/04/10 12:31:13;;;;;;;7.28;5.68;;;19.90;60.50;;;;;;5041320;28;20099;-85
2023/04/10 12:33:44;;;;;;;5.80;5.20;;;19.10;61.00;;;;;;5055102;28;20098;-85
2023/04/10 12:36:39;;;;;;;6.32;5.32;;;20.30;59.50;;;;;;5036814;28;20091;-86
2023/04/10 12:39:21;;;;;;;5.70;5.20;;;19.80;58.10;;;;;;5031737;28;20052;-86
2023/04/10 12:41:47;;;;;;;5.32;4.82;;;20.60;58.70;;;;;;5038304;28;20399;-86
2023/04/10 12:44:13;;;;;;;5.63;5.10;;;20.60;59.40;;;;;;5065961;22;20036;-32
2023/04/10 12:46:41;;;;;;;5.28;4.72;;;19.80;58.20;;;;;;5096872;28;20040;-32
2023/04/10 12:49:15;;;;;;;5.05;4.60;;;19.00;58.70;;;;;;5096918;28;20038;-32
2023/04/10 12:51:50;;;;;;;6.15;5.10;;;18.60;59.80;;;;;;5095720;28;20036;-35
2023/04/10 12:54:32;;;;;;;5.30;4.80;;;18.10;60.30;;;;;;5094990;28;20109;-36
2023/04/10 12:56:59;;;;;;;5.18;4.68;;;17.80;60.70;;;;;;5092098;28;20036;-36
2023/04/10 12:59:26;;;;;;;7.80;5.75;;;17.60;61.80;;;;;;5088581;28;20093;-35
2023/04/10 13:01:53;;;;;;;5.28;4.78;;;17.70;62.50;;;;;;5094492;28;20115;-35
2023/04/10 13:04:19;;;;;;;5.97;5.30;;;17.40;63.20;;;;;;5094789;28;20036;-36
2023/04/10 13:06:46;;;;;;;6.40;4.70;;;17.20;63.20;;;;;;5094329;28;20506;-35
2023/04/10 13:09:14;;;;;;;5.22;4.78;;;17.20;63.70;;;;;;5095031;28;20044;-36
2023/04/10 13:11:40;;;;;;;5.30;4.80;;;17.40;64.30;;;;;;5094801;28;20036;-35
2023/04/10 13:14:07;;;;;;;5.10;4.60;;;17.50;63.60;;;;;;5095248;28;20120;-35
2023/04/10 13:16:33;;;;;;;5.18;4.68;;;17.50;63.10;;;;;;5084987;28;20086;-35
2023/04/10 13:18:59;;;;;;;5.35;4.85;;;17.60;63.20;;;;;;5095597;28;20035;-35
2023/04/10 13:21:27;;;;;;;6.82;4.60;;;17.80;63.40;;;;;;5103395;28;20067;-35
2023/04/10 13:23:57;;;;;;;4.97;4.47;;;17.80;62.80;;;;;;5090683;28;20500;-36
2023/04/10 13:26:23;;;;;;;5.47;4.97;;;17.70;62.50;;;;;;5109899;28;20028;-35
2023/04/10 13:28:49;;;;;;;6.25;5.00;;;17.60;62.90;;;;;;5095671;28;20043;-35
2023/04/10 13:31:15;;;;;;;6.22;5.63;;;17.70;63.40;;;;;;5093767;28;20044;-35
2023/04/10 13:33:46;;;;;;;5.63;5.03;;;17.80;63.60;;;;;;5091373;28;20035;-35